Warner, New Hampshire
Current Conditions -  °F | °C
As of 4:51 PM on Monday 22 Dec 2014 (Local Time) from KCON Reporting Station
Overcast Overcast  
Wind Chill: 36°   Ceiling: 2500
Heat Index: 36°   Visibility: 10mi
Dew Point: 30°   Wind: 3mph
Humidity: 79%   Direction: 70°ENE
Pressure: 30.34"   Gusts: NA
Location:  43.28°N, 71.82°W
Report Text: KCON 222151Z AUTO 07003KT 10SM OVC025 02/M01 A3034 RMK AO2 SLP279 T00221011
Loading
Personal Weather Stations






























Interactive Weather Map New forecast layout! Learn more

10-Day Weather Forecast

Advertisements
Track Severe Weather on mobile